sensor_id;sensor_type;location;lat;lon;timestamp;temperature;humidity
44707;DHT22;30433;45.596;8.408;2022-10-16T00:05:08;15.60;99.90
44707;DHT22;30433;45.596;8.408;2022-10-16T00:11:11;15.60;99.90
44707;DHT22;30433;45.596;8.408;2022-10-16T00:17:14;15.40;99.90
44707;DHT22;30433;45.596;8.408;2022-10-16T00:23:16;15.50;99.90
44707;DHT22;30433;45.596;8.408;2022-10-16T00:29:17;15.50;99.90
44707;DHT22;30433;45.596;8.408;2022-10-16T00:35:20;15.50;99.90
44707;DHT22;30433;45.596;8.408;2022-10-16T00:41:23;15.40;99.90
44707;DHT22;30433;45.596;8.408;2022-10-16T00:47:26;15.40;99.90
44707;DHT22;30433;45.596;8.408;2022-10-16T00:53:30;15.30;99.90
44707;DHT22;30433;45.596;8.408;2022-10-16T00:59:32;15.40;99.90
44707;DHT22;30433;45.596;8.408;2022-10-16T01:05:36;15.50;99.90
44707;DHT22;30433;45.596;8.408;2022-10-16T01:11:44;15.50;99.90
44707;DHT22;30433;45.596;8.408;2022-10-16T01:17:48;15.40;99.90
44707;DHT22;30433;45.596;8.408;2022-10-16T01:23:51;15.40;99.90
44707;DHT22;30433;45.596;8.408;2022-10-16T01:30:04;15.50;99.90
44707;DHT22;30433;45.596;8.408;2022-10-16T01:36:07;15.40;99.90
44707;DHT22;30433;45.596;8.408;2022-10-16T01:42:12;15.50;99.90
44707;DHT22;30433;45.596;8.408;2022-10-16T01:48:18;15.50;99.90
44707;DHT22;30433;45.596;8.408;2022-10-16T01:54:20;15.50;99.90
44707;DHT22;30433;45.596;8.408;2022-10-16T02:00:24;15.60;99.90
44707;DHT22;30433;45.596;8.408;2022-10-16T02:06:29;15.60;99.90
44707;DHT22;30433;45.596;8.408;2022-10-16T02:12:31;15.60;99.90
44707;DHT22;30433;45.596;8.408;2022-10-16T02:18:34;15.70;99.90
44707;DHT22;30433;45.596;8.408;2022-10-16T02:24:38;15.70;99.90
44707;DHT22;30433;45.596;8.408;2022-10-16T02:30:41;15.70;99.90
44707;DHT22;30433;45.596;8.408;2022-10-16T02:36:44;15.70;99.90
44707;DHT22;30433;45.596;8.408;2022-10-16T02:42:51;15.70;99.90
44707;DHT22;30433;45.596;8.408;2022-10-16T02:48:53;15.80;99.90
44707;DHT22;30433;45.596;8.408;2022-10-16T02:54:54;15.70;99.90
44707;DHT22;30433;45.596;8.408;2022-10-16T03:00:57;15.70;99.90
44707;DHT22;30433;45.596;8.408;2022-10-16T03:06:59;15.70;99.90
44707;DHT22;30433;45.596;8.408;2022-10-16T03:13:01;15.60;99.90
44707;DHT22;30433;45.596;8.408;2022-10-16T03:19:04;15.70;99.90
44707;DHT22;30433;45.596;8.408;2022-10-16T03:25:06;15.80;99.90
44707;DHT22;30433;45.596;8.408;2022-10-16T03:31:08;15.70;99.90
44707;DHT22;30433;45.596;8.408;2022-10-16T03:37:11;15.70;99.90
44707;DHT22;30433;45.596;8.408;2022-10-16T03:43:13;15.70;99.90
44707;DHT22;30433;45.596;8.408;2022-10-16T03:49:14;15.50;99.90
44707;DHT22;30433;45.596;8.408;2022-10-16T03:55:17;15.50;99.90
44707;DHT22;30433;45.596;8.408;2022-10-16T04:01:19;15.50;99.90
44707;DHT22;30433;45.596;8.408;2022-10-16T04:07:21;15.50;99.90
44707;DHT22;30433;45.596;8.408;2022-10-16T04:13:24;15.40;99.90
44707;DHT22;30433;45.596;8.408;2022-10-16T04:19:25;15.50;99.90
44707;DHT22;30433;45.596;8.408;2022-10-16T04:25:27;15.70;99.90
44707;DHT22;30433;45.596;8.408;2022-10-16T04:31:30;15.50;99.90
44707;DHT22;30433;45.596;8.408;2022-10-16T04:37:32;15.40;99.90
44707;DHT22;30433;45.596;8.408;2022-10-16T04:43:34;15.40;99.90
44707;DHT22;30433;45.596;8.408;2022-10-16T04:49:37;15.40;99.90
44707;DHT22;30433;45.596;8.408;2022-10-16T04:55:39;15.40;99.90
44707;DHT22;30433;45.596;8.408;2022-10-16T05:01:41;15.30;99.90
44707;DHT22;30433;45.596;8.408;2022-10-16T05:07:44;15.30;99.90
44707;DHT22;30433;45.596;8.408;2022-10-16T05:13:46;15.30;99.90
44707;DHT22;30433;45.596;8.408;2022-10-16T05:19:48;15.30;99.90
44707;DHT22;30433;45.596;8.408;2022-10-16T05:25:54;15.40;99.90
44707;DHT22;30433;45.596;8.408;2022-10-16T05:31:58;15.50;99.90
44707;DHT22;30433;45.596;8.408;2022-10-16T05:38:00;15.60;99.90
44707;DHT22;30433;45.596;8.408;2022-10-16T05:44:04;15.40;99.90
44707;DHT22;30433;45.596;8.408;2022-10-16T05:50:07;15.30;99.90
44707;DHT22;30433;45.596;8.408;2022-10-16T05:56:09;15.40;99.90
44707;DHT22;30433;45.596;8.408;2022-10-16T06:02:13;15.30;99.90
44707;DHT22;30433;45.596;8.408;2022-10-16T06:08:15;15.10;99.90
44707;DHT22;30433;45.596;8.408;2022-10-16T06:14:16;15.20;99.90
44707;DHT22;30433;45.596;8.408;2022-10-16T06:20:19;15.20;99.90
44707;DHT22;30433;45.596;8.408;2022-10-16T06:26:22;15.30;99.90
44707;DHT22;30433;45.596;8.408;2022-10-16T06:32:24;15.40;99.90
44707;DHT22;30433;45.596;8.408;2022-10-16T06:38:27;15.50;99.90
44707;DHT22;30433;45.596;8.408;2022-10-16T06:44:29;15.50;99.90
44707;DHT22;30433;45.596;8.408;2022-10-16T06:50:30;15.50;99.90
44707;DHT22;30433;45.596;8.408;2022-10-16T06:56:34;15.60;99.90
44707;DHT22;30433;45.596;8.408;2022-10-16T07:02:35;15.60;99.90
44707;DHT22;30433;45.596;8.408;2022-10-16T07:08:38;15.60;99.90
44707;DHT22;30433;45.596;8.408;2022-10-16T07:14:41;15.70;99.90
44707;DHT22;30433;45.596;8.408;2022-10-16T07:20:43;15.80;99.90
44707;DHT22;30433;45.596;8.408;2022-10-16T07:26:45;15.80;99.90
44707;DHT22;30433;45.596;8.408;2022-10-16T07:32:48;15.90;99.90
44707;DHT22;30433;45.596;8.408;2022-10-16T07:38:50;16.00;99.90
44707;DHT22;30433;45.596;8.408;2022-10-16T07:44:52;16.10;99.90
44707;DHT22;30433;45.596;8.408;2022-10-16T07:50:57;16.20;99.90
44707;DHT22;30433;45.596;8.408;2022-10-16T07:57:00;16.30;99.90
44707;DHT22;30433;45.596;8.408;2022-10-16T08:03:02;16.40;99.90
44707;DHT22;30433;45.596;8.408;2022-10-16T08:09:05;16.50;99.90
44707;DHT22;30433;45.596;8.408;2022-10-16T08:15:08;16.60;99.90
44707;DHT22;30433;45.596;8.408;2022-10-16T08:21:12;16.70;99.90
44707;DHT22;30433;45.596;8.408;2022-10-16T08:27:15;16.70;99.90
44707;DHT22;30433;45.596;8.408;2022-10-16T08:33:17;16.90;99.90
44707;DHT22;30433;45.596;8.408;2022-10-16T08:39:19;17.00;99.90
44707;DHT22;30433;45.596;8.408;2022-10-16T08:45:28;17.20;99.90
44707;DHT22;30433;45.596;8.408;2022-10-16T08:51:32;17.20;99.90
44707;DHT22;30433;45.596;8.408;2022-10-16T08:57:34;17.30;99.90
44707;DHT22;30433;45.596;8.408;2022-10-16T09:03:41;17.30;99.90
44707;DHT22;30433;45.596;8.408;2022-10-16T09:09:49;17.40;99.90
44707;DHT22;30433;45.596;8.408;2022-10-16T09:15:58;17.40;99.90
44707;DHT22;30433;45.596;8.408;2022-10-16T09:22:04;17.50;99.90
44707;DHT22;30433;45.596;8.408;2022-10-16T09:28:12;17.70;99.90
44707;DHT22;30433;45.596;8.408;2022-10-16T09:34:16;17.70;99.90
44707;DHT22;30433;45.596;8.408;2022-10-16T09:40:28;17.80;99.90
44707;DHT22;30433;45.596;8.408;2022-10-16T09:46:31;17.80;99.90
44707;DHT22;30433;45.596;8.408;2022-10-16T09:52:33;17.90;99.90
44707;DHT22;30433;45.596;8.408;2022-10-16T09:58:36;18.00;99.90
44707;DHT22;30433;45.596;8.408;2022-10-16T10:04:41;18.20;99.90
44707;DHT22;30433;45.596;8.408;2022-10-16T10:10:43;18.30;99.90
44707;DHT22;30433;45.596;8.408;2022-10-16T10:16:46;18.40;99.90
44707;DHT22;30433;45.596;8.408;2022-10-16T10:22:48;18.60;99.90
44707;DHT22;30433;45.596;8.408;2022-10-16T10:28:55;19.00;99.90
44707;DHT22;30433;45.596;8.408;2022-10-16T10:35:12;19.00;99.90
44707;DHT22;30433;45.596;8.408;2022-10-16T10:47:39;19.00;99.90
44707;DHT22;30433;45.596;8.408;2022-10-16T10:53:44;19.10;99.90
44707;DHT22;30433;45.596;8.408;2022-10-16T10:59:54;19.40;99.90
44707;DHT22;30433;45.596;8.408;2022-10-16T11:06:02;19.40;99.90
44707;DHT22;30433;45.596;8.408;2022-10-16T11:12:09;19.70;99.90
44707;DHT22;30433;45.596;8.408;2022-10-16T11:18:16;19.60;99.90
44707;DHT22;30433;45.596;8.408;2022-10-16T11:24:19;19.70;99.90
44707;DHT22;30433;45.596;8.408;2022-10-16T11:30:24;19.70;99.90
44707;DHT22;30433;45.596;8.408;2022-10-16T11:36:28;20.00;99.90
44707;DHT22;30433;45.596;8.408;2022-10-16T11:42:32;20.20;99.90
44707;DHT22;30433;45.596;8.408;2022-10-16T11:48:40;19.80;99.90
44707;DHT22;30433;45.596;8.408;2022-10-16T11:54:44;19.90;99.90
44707;DHT22;30433;45.596;8.408;2022-10-16T12:00:47;20.00;99.90
44707;DHT22;30433;45.596;8.408;2022-10-16T12:06:54;20.10;99.90
44707;DHT22;30433;45.596;8.408;2022-10-16T12:12:58;20.20;99.90
44707;DHT22;30433;45.596;8.408;2022-10-16T12:19:09;20.20;99.90
44707;DHT22;30433;45.596;8.408;2022-10-16T12:25:20;20.40;99.90
44707;DHT22;30433;45.596;8.408;2022-10-16T12:31:22;20.60;99.90
44707;DHT22;30433;45.596;8.408;2022-10-16T12:37:25;20.40;99.90
44707;DHT22;30433;45.596;8.408;2022-10-16T12:43:36;20.60;99.90
44707;DHT22;30433;45.596;8.408;2022-10-16T12:49:48;20.50;99.90
44707;DHT22;30433;45.596;8.408;2022-10-16T12:55:52;20.50;99.90
44707;DHT22;30433;45.596;8.408;2022-10-16T13:02:04;20.50;99.90
44707;DHT22;30433;45.596;8.408;2022-10-16T13:08:15;20.80;99.90
44707;DHT22;30433;45.596;8.408;2022-10-16T13:14:23;20.60;99.90
44707;DHT22;30433;45.596;8.408;2022-10-16T13:20:31;20.60;99.90
44707;DHT22;30433;45.596;8.408;2022-10-16T13:26:37;20.90;99.90
44707;DHT22;30433;45.596;8.408;2022-10-16T13:32:44;21.10;99.90
44707;DHT22;30433;45.596;8.408;2022-10-16T13:38:47;21.10;99.90
44707;DHT22;30433;45.596;8.408;2022-10-16T13:44:49;21.00;99.90
44707;DHT22;30433;45.596;8.408;2022-10-16T13:50:58;20.90;99.90
44707;DHT22;30433;45.596;8.408;2022-10-16T13:57:05;20.70;99.90
44707;DHT22;30433;45.596;8.408;2022-10-16T14:03:12;21.00;99.90
44707;DHT22;30433;45.596;8.408;2022-10-16T14:09:17;20.90;99.90
44707;DHT22;30433;45.596;8.408;2022-10-16T14:15:23;20.70;99.90
44707;DHT22;30433;45.596;8.408;2022-10-16T14:21:25;20.70;99.90
44707;DHT22;30433;45.596;8.408;2022-10-16T14:27:30;20.60;99.90
44707;DHT22;30433;45.596;8.408;2022-10-16T14:33:34;20.70;99.90
44707;DHT22;30433;45.596;8.408;2022-10-16T14:39:35;20.70;99.90
44707;DHT22;30433;45.596;8.408;2022-10-16T14:45:37;20.60;99.90
44707;DHT22;30433;45.596;8.408;2022-10-16T14:51:43;20.50;99.90
44707;DHT22;30433;45.596;8.408;2022-10-16T14:57:46;20.40;99.90
44707;DHT22;30433;45.596;8.408;2022-10-16T15:03:48;20.20;99.90
44707;DHT22;30433;45.596;8.408;2022-10-16T15:09:53;19.90;99.90
44707;DHT22;30433;45.596;8.408;2022-10-16T15:15:57;19.70;99.90
44707;DHT22;30433;45.596;8.408;2022-10-16T15:21:59;19.60;99.90
44707;DHT22;30433;45.596;8.408;2022-10-16T15:28:03;19.60;99.90
44707;DHT22;30433;45.596;8.408;2022-10-16T15:34:05;19.50;99.90
44707;DHT22;30433;45.596;8.408;2022-10-16T15:40:07;19.50;99.90
44707;DHT22;30433;45.596;8.408;2022-10-16T15:46:11;19.30;99.90
44707;DHT22;30433;45.596;8.408;2022-10-16T15:52:14;19.30;99.90
44707;DHT22;30433;45.596;8.408;2022-10-16T15:58:16;19.20;99.90
44707;DHT22;30433;45.596;8.408;2022-10-16T16:04:19;19.10;99.90
44707;DHT22;30433;45.596;8.408;2022-10-16T16:10:21;19.00;99.90
44707;DHT22;30433;45.596;8.408;2022-10-16T16:16:23;18.90;99.90
44707;DHT22;30433;45.596;8.408;2022-10-16T16:22:26;18.80;99.90
44707;DHT22;30433;45.596;8.408;2022-10-16T16:28:28;18.70;99.90
44707;DHT22;30433;45.596;8.408;2022-10-16T16:34:30;18.50;99.90
44707;DHT22;30433;45.596;8.408;2022-10-16T16:40:33;18.50;99.90
44707;DHT22;30433;45.596;8.408;2022-10-16T16:46:35;18.20;99.90
44707;DHT22;30433;45.596;8.408;2022-10-16T16:52:37;17.90;99.90
44707;DHT22;30433;45.596;8.408;2022-10-16T16:58:40;17.80;99.90
44707;DHT22;30433;45.596;8.408;2022-10-16T17:04:42;17.60;99.90
44707;DHT22;30433;45.596;8.408;2022-10-16T17:10:44;16.80;99.90
44707;DHT22;30433;45.596;8.408;2022-10-16T17:16:49;16.60;99.90
44707;DHT22;30433;45.596;8.408;2022-10-16T17:22:53;16.70;99.90
44707;DHT22;30433;45.596;8.408;2022-10-16T17:28:55;17.10;99.90
44707;DHT22;30433;45.596;8.408;2022-10-16T17:34:58;17.10;99.90
44707;DHT22;30433;45.596;8.408;2022-10-16T17:41:08;16.30;99.90
44707;DHT22;30433;45.596;8.408;2022-10-16T17:47:10;16.60;99.90
44707;DHT22;30433;45.596;8.408;2022-10-16T17:53:13;15.80;99.90
44707;DHT22;30433;45.596;8.408;2022-10-16T17:59:15;15.90;99.90
44707;DHT22;30433;45.596;8.408;2022-10-16T18:05:17;16.40;99.90
44707;DHT22;30433;45.596;8.408;2022-10-16T18:11:20;16.50;99.90
44707;DHT22;30433;45.596;8.408;2022-10-16T18:17:22;16.40;99.90
44707;DHT22;30433;45.596;8.408;2022-10-16T18:23:24;16.40;99.90
44707;DHT22;30433;45.596;8.408;2022-10-16T18:29:27;16.10;99.90
44707;DHT22;30433;45.596;8.408;2022-10-16T18:35:29;16.00;99.90
44707;DHT22;30433;45.596;8.408;2022-10-16T18:41:31;15.20;99.90
44707;DHT22;30433;45.596;8.408;2022-10-16T18:47:34;15.50;99.90
44707;DHT22;30433;45.596;8.408;2022-10-16T18:53:36;15.90;99.90
44707;DHT22;30433;45.596;8.408;2022-10-16T18:59:38;15.90;99.90
44707;DHT22;30433;45.596;8.408;2022-10-16T19:05:42;15.80;99.90
44707;DHT22;30433;45.596;8.408;2022-10-16T19:11:46;15.80;99.90
44707;DHT22;30433;45.596;8.408;2022-10-16T19:17:48;15.70;99.90
44707;DHT22;30433;45.596;8.408;2022-10-16T19:23:52;15.70;99.90
44707;DHT22;30433;45.596;8.408;2022-10-16T19:29:55;15.80;99.90
44707;DHT22;30433;45.596;8.408;2022-10-16T19:36:05;15.90;99.90
44707;DHT22;30433;45.596;8.408;2022-10-16T19:42:10;15.90;99.90
44707;DHT22;30433;45.596;8.408;2022-10-16T19:48:12;15.80;99.90
44707;DHT22;30433;45.596;8.408;2022-10-16T19:54:14;15.70;99.90
44707;DHT22;30433;45.596;8.408;2022-10-16T20:00:18;15.70;99.90
44707;DHT22;30433;45.596;8.408;2022-10-16T20:06:20;15.70;99.90
44707;DHT22;30433;45.596;8.408;2022-10-16T20:12:22;15.60;99.90
44707;DHT22;30433;45.596;8.408;2022-10-16T20:18:25;15.70;99.90
44707;DHT22;30433;45.596;8.408;2022-10-16T20:24:27;15.70;99.90
44707;DHT22;30433;45.596;8.408;2022-10-16T20:30:32;15.50;99.90
44707;DHT22;30433;45.596;8.408;2022-10-16T20:36:35;15.40;99.90
44707;DHT22;30433;45.596;8.408;2022-10-16T20:42:39;15.60;99.90
44707;DHT22;30433;45.596;8.408;2022-10-16T20:48:41;15.60;99.90
44707;DHT22;30433;45.596;8.408;2022-10-16T20:54:47;15.50;99.90
44707;DHT22;30433;45.596;8.408;2022-10-16T21:00:49;15.50;99.90
44707;DHT22;30433;45.596;8.408;2022-10-16T21:06:51;15.60;99.90
44707;DHT22;30433;45.596;8.408;2022-10-16T21:12:54;15.50;99.90
44707;DHT22;30433;45.596;8.408;2022-10-16T21:18:56;15.50;99.90
44707;DHT22;30433;45.596;8.408;2022-10-16T21:24:58;15.40;99.90
44707;DHT22;30433;45.596;8.408;2022-10-16T21:31:10;15.60;99.90
44707;DHT22;30433;45.596;8.408;2022-10-16T21:37:12;15.40;99.90
44707;DHT22;30433;45.596;8.408;2022-10-16T21:43:14;15.40;99.90
44707;DHT22;30433;45.596;8.408;2022-10-16T21:49:17;15.30;99.90
44707;DHT22;30433;45.596;8.408;2022-10-16T21:55:19;15.30;99.90
44707;DHT22;30433;45.596;8.408;2022-10-16T22:01:21;15.30;99.90
44707;DHT22;30433;45.596;8.408;2022-10-16T22:07:25;15.30;99.90
44707;DHT22;30433;45.596;8.408;2022-10-16T22:13:26;15.30;99.90
44707;DHT22;30433;45.596;8.408;2022-10-16T22:19:28;15.10;99.90
44707;DHT22;30433;45.596;8.408;2022-10-16T22:25:31;15.00;99.90
44707;DHT22;30433;45.596;8.408;2022-10-16T22:31:34;15.10;99.90
44707;DHT22;30433;45.596;8.408;2022-10-16T22:37:35;15.20;99.90
44707;DHT22;30433;45.596;8.408;2022-10-16T22:43:39;15.00;99.90
44707;DHT22;30433;45.596;8.408;2022-10-16T22:49:42;15.00;99.90
44707;DHT22;30433;45.596;8.408;2022-10-16T22:55:43;15.10;99.90
44707;DHT22;30433;45.596;8.408;2022-10-16T23:01:47;15.00;99.90
44707;DHT22;30433;45.596;8.408;2022-10-16T23:07:48;15.00;99.90
44707;DHT22;30433;45.596;8.408;2022-10-16T23:13:50;14.80;99.90
44707;DHT22;30433;45.596;8.408;2022-10-16T23:19:53;14.80;99.90
44707;DHT22;30433;45.596;8.408;2022-10-16T23:25:55;14.90;99.90
44707;DHT22;30433;45.596;8.408;2022-10-16T23:31:57;14.90;99.90
44707;DHT22;30433;45.596;8.408;2022-10-16T23:38:00;14.80;99.90
44707;DHT22;30433;45.596;8.408;2022-10-16T23:44:02;14.90;99.90
44707;DHT22;30433;45.596;8.408;2022-10-16T23:50:04;14.90;99.90
44707;DHT22;30433;45.596;8.408;2022-10-16T23:56:07;14.90;99.90
